PWSweather.com
Personal Weather Stations
Station Observations
KAZTUCSO57
Countryside Manor, Tucson, AZ 85742

Countryside ManorTucson, AZ 85742

Lat: 32.3692, Lon: -111.066

Elevation: 2307

Station Type: Davis VP Pro+ 6163

http://frogville.us

Latest ConditionsUpdated 1:30:01 PM MST Friday, Jul 25, 2014
Currently Today's Max Today's Min Today's Average
Temperature 105.7°F40.9°C 105.7°F40.9°C 83.8°F28.8°C 90.8°F32.7°C
Dew Point 62.7°F17.1°C 66.9°F19.4°C 61.1°F16.2°C 64.0°F17.8°C
Winds 3.6 mph SW5.8 kmh SW 4.0 mph SW6.4 kmh SW - 1.1 mph 1.8 kmh
Wind Gusts 6.0 mph9.7 kmh 9.0 mph14.5 kmh - -
Humidity 25% 54% 25% 42%
Pressure 29.90 in1012.5 mb 30.00 in1015.9 mb 29.90 in1012.5 mb -
Hour Temp Dew Point Humidity Winds Wind Gusts Pressure Precip Precip Rate Daily Precip Total
01:30 PM 105.7°F40.9°C 62.7°F17.1°C 25% 3.6 mph SW5.8 kmh SW 6.0 mph9.7 kmh 29.90 in1012.5 mb 0.00 in0.0 mm 0.00 in/hr0.0 mm/hr 0.00 in0.0 mm
01:20 PM 104.6°F40.3°C 62.8°F17.1°C 26% 1.7 mph WSW2.7 kmh WSW 3.0 mph4.8 kmh 29.91 in1012.9 mb 0.00 in0.0 mm 0.00 in/hr0.0 mm/hr 0.00 in0.0 mm
01:10 PM 104.7°F40.4°C 61.8°F16.6°C 25% 4.0 mph SW6.4 kmh SW 9.0 mph14.5 kmh 29.91 in1012.9 mb 0.00 in0.0 mm 0.00 in/hr0.0 mm/hr 0.00 in0.0 mm
01:00 PM 104.3°F40.2°C 61.5°F16.4°C 25% 2.7 mph SW4.3 kmh SW 5.0 mph8.0 kmh 29.91 in1012.9 mb 0.00 in0.0 mm 0.00 in/hr0.0 mm/hr 0.00 in0.0 mm
12:50 PM 104.1°F40.1°C 61.3°F16.3°C 25% 2.6 mph SW4.2 kmh SW 5.0 mph8.0 kmh 29.91 in1012.9 mb 0.00 in0.0 mm 0.00 in/hr0.0 mm/hr 0.00 in0.0 mm
12:40 PM 104.8°F40.4°C 61.9°F16.6°C 25% 0.5 mph NE0.8 kmh NE 1.0 mph1.6 kmh 29.92 in1013.2 mb 0.00 in0.0 mm 0.00 in/hr0.0 mm/hr 0.00 in0.0 mm
12:30 PM 104.7°F40.4°C 61.9°F16.6°C 25% 1.3 mph W2.1 kmh W 4.0 mph6.4 kmh 29.93 in1013.5 mb 0.00 in0.0 mm 0.00 in/hr0.0 mm/hr 0.00 in0.0 mm
12:20 PM 103.9°F39.9°C 61.1°F16.2°C 25% 1.8 mph NE2.9 kmh NE 2.0 mph3.2 kmh 29.94 in1013.9 mb 0.00 in0.0 mm 0.00 in/hr0.0 mm/hr 0.00 in0.0 mm
12:10 PM 103.4°F39.7°C 61.8°F16.6°C 26% 0.7 mph W1.1 kmh W 1.0 mph1.6 kmh 29.94 in1013.9 mb 0.00 in0.0 mm 0.00 in/hr0.0 mm/hr 0.00 in0.0 mm
12:00 PM 102.2°F39.0°C 61.9°F16.6°C 27% 0.2 mph S0.3 kmh S 1.0 mph1.6 kmh 29.95 in1014.2 mb 0.00 in0.0 mm 0.00 in/hr0.0 mm/hr 0.00 in0.0 mm
11:50 AM 102.4°F39.1°C 62.1°F16.7°C 27% 3.2 mph SW5.1 kmh SW 4.0 mph6.4 kmh 29.95 in1014.2 mb 0.00 in0.0 mm 0.00 in/hr0.0 mm/hr 0.00 in0.0 mm
11:40 AM 101.6°F38.7°C 62.4°F16.9°C 28% 0.7 mph SW1.1 kmh SW 1.0 mph1.6 kmh 29.95 in1014.2 mb 0.00 in0.0 mm 0.00 in/hr0.0 mm/hr 0.00 in0.0 mm
11:30 AM 101.0°F38.3°C 62.9°F17.2°C 29% 1.6 mph SW2.6 kmh SW 3.0 mph4.8 kmh 29.95 in1014.2 mb 0.00 in0.0 mm 0.00 in/hr0.0 mm/hr 0.00 in0.0 mm
11:20 AM 99.6°F37.6°C 63.6°F17.6°C 31% 0.3 mph WNW0.5 kmh WNW 2.0 mph3.2 kmh 29.96 in1014.6 mb 0.00 in0.0 mm 0.00 in/hr0.0 mm/hr 0.00 in0.0 mm
11:10 AM 99.1°F37.3°C 63.2°F17.3°C 31% 2.1 mph E3.4 kmh E 5.0 mph8.0 kmh 29.96 in1014.6 mb 0.00 in0.0 mm 0.00 in/hr0.0 mm/hr 0.00 in0.0 mm
11:00 AM 98.7°F37.1°C 62.8°F17.1°C 31% 0.2 mph NE0.3 kmh NE 2.0 mph3.2 kmh 29.97 in1014.9 mb 0.00 in0.0 mm 0.00 in/hr0.0 mm/hr 0.00 in0.0 mm
10:50 AM 98.2°F36.8°C 63.3°F17.4°C 32% 1.3 mph NNW2.1 kmh NNW 4.0 mph6.4 kmh 29.97 in1014.9 mb 0.00 in0.0 mm 0.00 in/hr0.0 mm/hr 0.00 in0.0 mm
10:40 AM 97.1°F36.2°C 63.2°F17.3°C 33% 0.2 mph NW0.3 kmh NW 1.0 mph1.6 kmh 29.97 in1014.9 mb 0.00 in0.0 mm 0.00 in/hr0.0 mm/hr 0.00 in0.0 mm
10:30 AM 96.0°F35.6°C 64.0°F17.8°C 35% 1.1 mph SW1.8 kmh SW 2.0 mph3.2 kmh 29.98 in1015.2 mb 0.00 in0.0 mm 0.00 in/hr0.0 mm/hr 0.00 in0.0 mm
10:20 AM 95.2°F35.1°C 64.0°F17.8°C 36% 1.5 mph SE2.4 kmh SE 2.0 mph3.2 kmh 29.98 in1015.2 mb 0.00 in0.0 mm 0.00 in/hr0.0 mm/hr 0.00 in0.0 mm
10:10 AM 94.9°F34.9°C 64.6°F18.1°C 37% 2.4 mph SW3.9 kmh SW 4.0 mph6.4 kmh 29.98 in1015.2 mb 0.00 in0.0 mm 0.00 in/hr0.0 mm/hr 0.00 in0.0 mm
10:00 AM 94.7°F34.8°C 63.6°F17.6°C 36% 1.8 mph SSE2.9 kmh SSE 4.0 mph6.4 kmh 29.98 in1015.2 mb 0.00 in0.0 mm 0.00 in/hr0.0 mm/hr 0.00 in0.0 mm
09:50 AM 94.5°F34.7°C 64.9°F18.3°C 38% 2.2 mph S3.5 kmh S 5.0 mph8.0 kmh 29.99 in1015.6 mb 0.00 in0.0 mm 0.00 in/hr0.0 mm/hr 0.00 in0.0 mm
09:40 AM 94.1°F34.5°C 65.4°F18.6°C 39% 1.8 mph ENE2.9 kmh ENE 5.0 mph8.0 kmh 29.98 in1015.2 mb 0.00 in0.0 mm 0.00 in/hr0.0 mm/hr 0.00 in0.0 mm
09:30 AM 93.6°F34.2°C 65.6°F18.7°C 40% 1.1 mph SE1.8 kmh SE 3.0 mph4.8 kmh 29.99 in1015.6 mb 0.00 in0.0 mm 0.00 in/hr0.0 mm/hr 0.00 in0.0 mm
09:20 AM 93.1°F33.9°C 66.6°F19.2°C 42% 2.3 mph SE3.7 kmh SE 7.0 mph11.3 kmh 29.99 in1015.6 mb 0.00 in0.0 mm 0.00 in/hr0.0 mm/hr 0.00 in0.0 mm
09:10 AM 92.6°F33.7°C 66.2°F19.0°C 42% 2.4 mph SSW3.9 kmh SSW 4.0 mph6.4 kmh 29.99 in1015.6 mb 0.00 in0.0 mm 0.00 in/hr0.0 mm/hr 0.00 in0.0 mm
09:00 AM 92.1°F33.4°C 66.4°F19.1°C 43% 1.4 mph NNE2.3 kmh NNE 2.0 mph3.2 kmh 29.99 in1015.6 mb 0.00 in0.0 mm 0.00 in/hr0.0 mm/hr 0.00 in0.0 mm
08:50 AM 91.8°F33.2°C 66.8°F19.3°C 44% 2.4 mph NE3.9 kmh NE 3.0 mph4.8 kmh 30.00 in1015.9 mb 0.00 in0.0 mm 0.00 in/hr0.0 mm/hr 0.00 in0.0 mm
08:40 AM 91.3°F32.9°C 66.3°F19.1°C 44% 2.2 mph NE3.5 kmh NE 3.0 mph4.8 kmh 29.99 in1015.6 mb 0.00 in0.0 mm 0.00 in/hr0.0 mm/hr 0.00 in0.0 mm
08:30 AM 90.8°F32.7°C 65.8°F18.8°C 44% 2.7 mph S4.3 kmh S 5.0 mph8.0 kmh 29.99 in1015.6 mb 0.00 in0.0 mm 0.00 in/hr0.0 mm/hr 0.00 in0.0 mm
08:20 AM 90.3°F32.4°C 66.7°F19.3°C 46% 1.2 mph ESE1.9 kmh ESE 7.0 mph11.3 kmh 29.99 in1015.6 mb 0.00 in0.0 mm 0.00 in/hr0.0 mm/hr 0.00 in0.0 mm
08:10 AM 89.9°F32.2°C 66.9°F19.4°C 47% 0.9 mph WSW1.4 kmh WSW 2.0 mph3.2 kmh 29.99 in1015.6 mb 0.00 in0.0 mm 0.00 in/hr0.0 mm/hr 0.00 in0.0 mm
08:00 AM 89.5°F31.9°C 66.6°F19.2°C 47% 2.1 mph SE3.4 kmh SE 3.0 mph4.8 kmh 29.99 in1015.6 mb 0.00 in0.0 mm 0.00 in/hr0.0 mm/hr 0.00 in0.0 mm
07:50 AM 89.2°F31.8°C 66.3°F19.1°C 47% 2.1 mph E3.4 kmh E 3.0 mph4.8 kmh 29.98 in1015.2 mb 0.00 in0.0 mm 0.00 in/hr0.0 mm/hr 0.00 in0.0 mm
07:40 AM 88.6°F31.4°C 66.4°F19.1°C 48% 1.7 mph E2.7 kmh E 2.0 mph3.2 kmh 29.98 in1015.2 mb 0.00 in0.0 mm 0.00 in/hr0.0 mm/hr 0.00 in0.0 mm
07:30 AM 87.9°F31.1°C 66.4°F19.1°C 49% 2.1 mph ESE3.4 kmh ESE 4.0 mph6.4 kmh 29.98 in1015.2 mb 0.00 in0.0 mm 0.00 in/hr0.0 mm/hr 0.00 in0.0 mm
07:20 AM 87.2°F30.7°C 66.3°F19.1°C 50% 0.8 mph ESE1.3 kmh ESE 2.0 mph3.2 kmh 29.98 in1015.2 mb 0.00 in0.0 mm 0.00 in/hr0.0 mm/hr 0.00 in0.0 mm
07:10 AM 86.6°F30.3°C 66.3°F19.1°C 51% 1.2 mph E1.9 kmh E 2.0 mph3.2 kmh 29.98 in1015.2 mb 0.00 in0.0 mm 0.00 in/hr0.0 mm/hr 0.00 in0.0 mm
07:00 AM 86.0°F30.0°C 66.3°F19.1°C 52% 1.7 mph ENE2.7 kmh ENE 3.0 mph4.8 kmh 29.97 in1014.9 mb 0.00 in0.0 mm 0.00 in/hr0.0 mm/hr 0.00 in0.0 mm
06:50 AM 85.4°F29.7°C 66.3°F19.1°C 53% 1.1 mph E1.8 kmh E 1.0 mph1.6 kmh 29.97 in1014.9 mb 0.00 in0.0 mm 0.00 in/hr0.0 mm/hr 0.00 in0.0 mm
06:40 AM 84.8°F29.3°C 65.8°F18.8°C 53% 0.9 mph ESE1.4 kmh ESE 2.0 mph3.2 kmh 29.96 in1014.6 mb 0.00 in0.0 mm 0.00 in/hr0.0 mm/hr 0.00 in0.0 mm
06:30 AM 84.3°F29.1°C 65.9°F18.8°C 54% 0.7 mph SE1.1 kmh SE 2.0 mph3.2 kmh 29.96 in1014.6 mb 0.00 in0.0 mm 0.00 in/hr0.0 mm/hr 0.00 in0.0 mm
06:20 AM 84.0°F28.9°C 65.6°F18.7°C 54% 1.0 mph ESE1.6 kmh ESE 2.0 mph3.2 kmh 29.96 in1014.6 mb 0.00 in0.0 mm 0.00 in/hr0.0 mm/hr 0.00 in0.0 mm
06:10 AM 83.8°F28.8°C 65.4°F18.6°C 54% 2.0 mph S3.2 kmh S 5.0 mph8.0 kmh 29.96 in1014.6 mb 0.00 in0.0 mm 0.00 in/hr0.0 mm/hr 0.00 in0.0 mm
06:00 AM 83.8°F28.8°C 64.8°F18.2°C 53% 0.8 mph NE1.3 kmh NE 1.0 mph1.6 kmh 29.96 in1014.6 mb 0.00 in0.0 mm 0.00 in/hr0.0 mm/hr 0.00 in0.0 mm
05:50 AM 83.8°F28.8°C 64.8°F18.2°C 53% 1.4 mph S2.3 kmh S 3.0 mph4.8 kmh 29.96 in1014.6 mb 0.00 in0.0 mm 0.00 in/hr0.0 mm/hr 0.00 in0.0 mm
05:40 AM 83.9°F28.8°C 64.9°F18.3°C 53% 0.2 mph S0.3 kmh S 1.0 mph1.6 kmh 29.95 in1014.2 mb 0.00 in0.0 mm 0.00 in/hr0.0 mm/hr 0.00 in0.0 mm
05:30 AM 84.1°F28.9°C 64.6°F18.1°C 52% 0.3 mph SE0.5 kmh SE 1.0 mph1.6 kmh 29.95 in1014.2 mb 0.00 in0.0 mm 0.00 in/hr0.0 mm/hr 0.00 in0.0 mm
05:20 AM 84.3°F29.1°C 64.8°F18.2°C 52% Calm Calm -- 29.95 in1014.2 mb 0.00 in0.0 mm 0.00 in/hr0.0 mm/hr 0.00 in0.0 mm
05:10 AM 84.4°F29.1°C 64.3°F17.9°C 51% 0.6 mph SE1.0 kmh SE 2.0 mph3.2 kmh 29.95 in1014.2 mb 0.00 in0.0 mm 0.00 in/hr0.0 mm/hr 0.00 in0.0 mm
05:00 AM 84.5°F29.2°C 64.4°F18.0°C 51% 0.9 mph SE1.4 kmh SE 2.0 mph3.2 kmh 29.95 in1014.2 mb 0.00 in0.0 mm 0.00 in/hr0.0 mm/hr 0.00 in0.0 mm
04:50 AM 84.6°F29.2°C 64.5°F18.1°C 51% 1.3 mph E2.1 kmh E 3.0 mph4.8 kmh 29.94 in1013.9 mb 0.00 in0.0 mm 0.00 in/hr0.0 mm/hr 0.00 in0.0 mm
04:40 AM 84.7°F29.3°C 64.0°F17.8°C 50% 1.6 mph ESE2.6 kmh ESE 3.0 mph4.8 kmh 29.94 in1013.9 mb 0.00 in0.0 mm 0.00 in/hr0.0 mm/hr 0.00 in0.0 mm
04:30 AM 84.8°F29.3°C 64.1°F17.8°C 50% 0.4 mph E0.6 kmh E 1.0 mph1.6 kmh 29.94 in1013.9 mb 0.00 in0.0 mm 0.00 in/hr0.0 mm/hr 0.00 in0.0 mm
04:20 AM 84.9°F29.4°C 63.6°F17.6°C 49% 0.4 mph SE0.6 kmh SE 2.0 mph3.2 kmh 29.94 in1013.9 mb 0.00 in0.0 mm 0.00 in/hr0.0 mm/hr 0.00 in0.0 mm
04:10 AM 85.0°F29.4°C 63.7°F17.6°C 49% 0.9 mph ESE1.4 kmh ESE 5.0 mph8.0 kmh 29.94 in1013.9 mb 0.00 in0.0 mm 0.00 in/hr0.0 mm/hr 0.00 in0.0 mm
04:00 AM 85.0°F29.4°C 63.7°F17.6°C 49% 0.3 mph E0.5 kmh E 1.0 mph1.6 kmh 29.93 in1013.5 mb 0.00 in0.0 mm 0.00 in/hr0.0 mm/hr 0.00 in0.0 mm
03:50 AM 85.1°F29.5°C 63.2°F17.3°C 48% 0.6 mph E1.0 kmh E 4.0 mph6.4 kmh 29.93 in1013.5 mb 0.00 in0.0 mm 0.00 in/hr0.0 mm/hr 0.00 in0.0 mm
03:40 AM 85.2°F29.6°C 63.3°F17.4°C 48% 1.3 mph E2.1 kmh E 6.0 mph9.7 kmh 29.93 in1013.5 mb 0.00 in0.0 mm 0.00 in/hr0.0 mm/hr 0.00 in0.0 mm
03:30 AM 85.2°F29.6°C 63.3°F17.4°C 48% 1.2 mph E1.9 kmh E 3.0 mph4.8 kmh 29.93 in1013.5 mb 0.00 in0.0 mm 0.00 in/hr0.0 mm/hr 0.00 in0.0 mm
03:20 AM 85.4°F29.7°C 62.9°F17.2°C 47% 0.7 mph E1.1 kmh E 2.0 mph3.2 kmh 29.94 in1013.9 mb 0.00 in0.0 mm 0.00 in/hr0.0 mm/hr 0.00 in0.0 mm
03:10 AM 85.6°F29.8°C 63.0°F17.2°C 47% 0.8 mph ESE1.3 kmh ESE 1.0 mph1.6 kmh 29.94 in1013.9 mb 0.00 in0.0 mm 0.00 in/hr0.0 mm/hr 0.00 in0.0 mm
03:00 AM 85.7°F29.8°C 62.5°F16.9°C 46% 0.2 mph E0.3 kmh E 1.0 mph1.6 kmh 29.95 in1014.2 mb 0.00 in0.0 mm 0.00 in/hr0.0 mm/hr 0.00 in0.0 mm
02:50 AM 85.9°F29.9°C 62.7°F17.1°C 46% 0.2 mph E0.3 kmh E 1.0 mph1.6 kmh 29.95 in1014.2 mb 0.00 in0.0 mm 0.00 in/hr0.0 mm/hr 0.00 in0.0 mm
02:40 AM 86.1°F30.1°C 62.3°F16.8°C 45% 0.1 mph E0.2 kmh E 1.0 mph1.6 kmh 29.95 in1014.2 mb 0.00 in0.0 mm 0.00 in/hr0.0 mm/hr 0.00 in0.0 mm
02:30 AM 86.3°F30.2°C 62.4°F16.9°C 45% 0.4 mph E0.6 kmh E 1.0 mph1.6 kmh 29.95 in1014.2 mb 0.00 in0.0 mm 0.00 in/hr0.0 mm/hr 0.00 in0.0 mm
02:20 AM 86.4°F30.2°C 61.9°F16.6°C 44% 0.6 mph E1.0 kmh E 2.0 mph3.2 kmh 29.95 in1014.2 mb 0.00 in0.0 mm 0.00 in/hr0.0 mm/hr 0.00 in0.0 mm
02:10 AM 86.6°F30.3°C 62.1°F16.7°C 44% Calm Calm 2.0 mph3.2 kmh 29.95 in1014.2 mb 0.00 in0.0 mm 0.00 in/hr0.0 mm/hr 0.00 in0.0 mm
02:00 AM 86.6°F30.3°C 62.1°F16.7°C 44% 0.5 mph SE0.8 kmh SE 1.0 mph1.6 kmh 29.94 in1013.9 mb 0.00 in0.0 mm 0.00 in/hr0.0 mm/hr 0.00 in0.0 mm
01:50 AM 86.6°F30.3°C 62.8°F17.1°C 45% 0.5 mph E0.8 kmh E 3.0 mph4.8 kmh 29.95 in1014.2 mb 0.00 in0.0 mm 0.00 in/hr0.0 mm/hr 0.00 in0.0 mm
01:40 AM 86.9°F30.5°C 63.0°F17.2°C 45% 0.1 mph E0.2 kmh E 1.0 mph1.6 kmh 29.94 in1013.9 mb 0.00 in0.0 mm 0.00 in/hr0.0 mm/hr 0.00 in0.0 mm
01:30 AM 86.9°F30.5°C 63.0°F17.2°C 45% Calm Calm -- 29.94 in1013.9 mb 0.00 in0.0 mm 0.00 in/hr0.0 mm/hr 0.00 in0.0 mm
01:20 AM 86.8°F30.4°C 62.3°F16.8°C 44% 0.1 mph E0.2 kmh E 1.0 mph1.6 kmh 29.94 in1013.9 mb 0.00 in0.0 mm 0.00 in/hr0.0 mm/hr 0.00 in0.0 mm
01:10 AM 86.6°F30.3°C 63.4°F17.4°C 46% 0.7 mph E1.1 kmh E 3.0 mph4.8 kmh 29.95 in1014.2 mb 0.00 in0.0 mm 0.00 in/hr0.0 mm/hr 0.00 in0.0 mm
01:00 AM 86.7°F30.4°C 63.4°F17.4°C 46% Calm Calm -- 29.95 in1014.2 mb 0.00 in0.0 mm 0.00 in/hr0.0 mm/hr 0.00 in0.0 mm
12:50 AM 86.9°F30.5°C 64.2°F17.9°C 47% 0.4 mph E0.6 kmh E 2.0 mph3.2 kmh 29.95 in1014.2 mb 0.00 in0.0 mm 0.00 in/hr0.0 mm/hr 0.00 in0.0 mm
12:40 AM 87.2°F30.7°C 65.1°F18.4°C 48% Calm Calm 1.0 mph1.6 kmh 29.95 in1014.2 mb 0.00 in0.0 mm 0.00 in/hr0.0 mm/hr 0.00 in0.0 mm
12:30 AM 87.9°F31.1°C 64.5°F18.1°C 46% 0.8 mph SE1.3 kmh SE 1.0 mph1.6 kmh 29.95 in1014.2 mb 0.00 in0.0 mm 0.00 in/hr0.0 mm/hr 0.00 in0.0 mm
12:20 AM 88.5°F31.4°C 64.4°F18.0°C 45% Calm Calm -- 29.95 in1014.2 mb 0.00 in0.0 mm 0.00 in/hr0.0 mm/hr 0.00 in0.0 mm
12:10 AM 89.0°F31.7°C 64.3°F17.9°C 44% Calm Calm -- 29.95 in1014.2 mb 0.00 in0.0 mm 0.00 in/hr0.0 mm/hr 0.00 in0.0 mm
12:00 AM 89.4°F31.9°C 62.6°F17.0°C 41% Calm Calm -- 29.95 in1014.2 mb 0.00 in0.0 mm 0.00 in/hr0.0 mm/hr 0.00 in0.0 mm